createdAt,value
2023-05-23T00:00:58.287Z,13.82
2023-05-23T00:03:28.580Z,17.70
2023-05-23T00:05:55.626Z,17.10
2023-05-23T00:08:22.456Z,16.77
2023-05-23T00:10:49.246Z,21.67
2023-05-23T00:13:15.849Z,18.45
2023-05-23T00:15:42.786Z,19.10
2023-05-23T00:18:10.974Z,15.70
2023-05-23T00:20:38.481Z,16.52
2023-05-23T00:23:05.102Z,17.50
2023-05-23T00:25:31.620Z,19.08
2023-05-23T00:27:58.243Z,19.52
2023-05-23T00:30:25.029Z,18.75
2023-05-23T00:32:53.318Z,23.13
2023-05-23T00:35:23.153Z,18.50
2023-05-23T00:37:50.074Z,21.50
2023-05-23T00:40:17.080Z,19.30
2023-05-23T00:42:43.907Z,20.90
2023-05-23T00:45:11.058Z,20.85
2023-05-23T00:47:38.276Z,19.30
2023-05-23T00:50:06.224Z,20.67
2023-05-23T00:52:33.723Z,17.85
2023-05-23T00:55:00.249Z,21.58
2023-05-23T00:57:26.745Z,20.63
2023-05-23T00:59:53.374Z,20.58
2023-05-23T01:02:20.357Z,17.88
2023-05-23T01:04:50.970Z,22.02
2023-05-23T01:09:44.015Z,19.20
2023-05-23T01:12:14.818Z,20.98
2023-05-23T01:15:05.842Z,20.08
2023-05-23T01:18:10.669Z,21.63
2023-05-23T01:21:01.433Z,18.08
2023-05-23T01:24:04.780Z,22.77
2023-05-23T01:26:41.374Z,20.10
2023-05-23T01:29:15.106Z,20.90
2023-05-23T01:31:46.964Z,19.48
2023-05-23T01:34:14.513Z,19.83
2023-05-23T01:36:43.214Z,18.33
2023-05-23T01:39:09.818Z,23.80
2023-05-23T01:41:36.932Z,21.40
2023-05-23T01:44:04.638Z,22.92
2023-05-23T01:46:32.542Z,21.05
2023-05-23T01:49:00.660Z,21.98
2023-05-23T01:51:27.556Z,25.00
2023-05-23T01:53:54.190Z,23.98
2023-05-23T01:56:21.391Z,24.08
2023-05-23T01:58:48.099Z,22.20
2023-05-23T02:01:15.354Z,22.27
2023-05-23T02:03:42.339Z,24.15
2023-05-23T02:06:08.948Z,24.00
2023-05-23T02:08:35.657Z,22.52
2023-05-23T02:11:02.467Z,23.27
2023-05-23T02:13:29.181Z,17.40
2023-05-23T02:15:56.088Z,24.77
2023-05-23T02:18:23.012Z,24.23
2023-05-23T02:20:49.478Z,24.35
2023-05-23T02:23:16.329Z,24.25
2023-05-23T02:25:43.318Z,20.30
2023-05-23T02:28:13.073Z,19.67
2023-05-23T02:30:39.970Z,23.43
2023-05-23T02:33:07.479Z,19.08
2023-05-23T02:35:34.471Z,20.40
2023-05-23T02:38:01.122Z,25.02
2023-05-23T02:40:27.988Z,24.63
2023-05-23T02:42:54.597Z,23.85
2023-05-23T02:45:21.128Z,26.38
2023-05-23T02:47:47.730Z,20.13
2023-05-23T02:50:14.488Z,26.85
2023-05-23T02:52:41.068Z,24.92
2023-05-23T02:55:08.448Z,21.35
2023-05-23T02:57:35.669Z,22.73
2023-05-23T03:00:02.584Z,25.20
2023-05-23T03:02:29.221Z,28.90
2023-05-23T03:04:56.001Z,23.42
2023-05-23T03:07:28.204Z,22.75
2023-05-23T03:09:55.392Z,27.38
2023-05-23T03:12:22.224Z,27.00
2023-05-23T03:14:49.023Z,24.77
2023-05-23T03:17:15.934Z,28.98
2023-05-23T03:19:43.132Z,25.60
2023-05-23T03:22:09.863Z,23.17
2023-05-23T03:24:36.580Z,24.20
2023-05-23T03:27:03.692Z,25.52
2023-05-23T03:29:30.880Z,24.30
2023-05-23T03:31:57.587Z,28.85
2023-05-23T03:34:24.318Z,24.35
2023-05-23T03:36:51.026Z,26.17
2023-05-23T03:39:17.867Z,26.15
2023-05-23T03:41:44.741Z,28.17
2023-05-23T03:44:11.608Z,26.42
2023-05-23T03:46:39.752Z,23.30
2023-05-23T03:49:07.005Z,30.10
2023-05-23T03:51:35.016Z,26.15
2023-05-23T03:54:01.802Z,34.90
2023-05-23T03:56:28.512Z,33.92
2023-05-23T03:58:55.312Z,33.17
2023-05-23T04:01:22.227Z,27.25
2023-05-23T04:03:49.307Z,29.27
2023-05-23T04:06:16.145Z,32.03
2023-05-23T04:08:42.779Z,33.10
2023-05-23T04:11:09.624Z,27.65
2023-05-23T04:13:36.276Z,29.45
2023-05-23T04:16:03.206Z,28.15
2023-05-23T04:18:33.334Z,31.50
2023-05-23T04:21:00.551Z,28.60
2023-05-23T04:23:27.429Z,30.05
2023-05-23T04:25:54.156Z,32.83
2023-05-23T04:28:21.028Z,33.92
2023-05-23T04:30:47.869Z,33.05
2023-05-23T04:33:14.352Z,32.38
2023-05-23T04:35:41.190Z,34.47
2023-05-23T04:38:08.057Z,31.02
2023-05-23T04:40:34.580Z,32.78
2023-05-23T04:43:01.305Z,36.85
2023-05-23T04:45:27.837Z,33.80
2023-05-23T04:47:54.727Z,38.38
2023-05-23T04:50:21.651Z,38.53
2023-05-23T04:52:48.174Z,34.47
2023-05-23T04:55:14.864Z,35.72
2023-05-23T04:57:41.458Z,36.15
2023-05-23T05:00:08.394Z,33.53
2023-05-23T05:02:35.109Z,35.28
2023-05-23T05:05:01.701Z,35.22
2023-05-23T05:07:28.528Z,37.63
2023-05-23T05:09:55.222Z,41.42
2023-05-23T05:12:21.878Z,39.85
2023-05-23T05:14:48.427Z,42.83
2023-05-23T05:17:14.933Z,37.63
2023-05-23T05:19:41.499Z,31.67
2023-05-23T05:22:08.075Z,45.72
2023-05-23T05:24:34.951Z,47.75
2023-05-23T05:27:01.492Z,46.70
2023-05-23T05:29:28.385Z,51.53
2023-05-23T05:31:54.940Z,76.22
2023-05-23T05:34:21.625Z,67.90
2023-05-23T05:36:48.461Z,82.07
2023-05-23T05:39:15.433Z,76.05
2023-05-23T05:41:41.948Z,86.18
2023-05-23T05:44:09.254Z,91.13
2023-05-23T05:46:36.184Z,82.40
2023-05-23T05:49:03.172Z,82.82
2023-05-23T05:51:29.614Z,80.47
2023-05-23T05:53:56.297Z,78.60
2023-05-23T05:56:23.164Z,76.85
2023-05-23T05:58:49.773Z,70.32
2023-05-23T06:01:16.619Z,69.32
2023-05-23T06:03:43.607Z,67.60
2023-05-23T06:06:10.317Z,67.72
2023-05-23T06:08:36.847Z,67.53
2023-05-23T06:11:03.834Z,64.55
2023-05-23T06:13:30.817Z,65.68
2023-05-23T06:15:57.801Z,58.58
2023-05-23T06:18:24.539Z,56.65
2023-05-23T06:20:51.030Z,50.25
2023-05-23T06:23:18.191Z,51.30
2023-05-23T06:25:44.707Z,52.30
2023-05-23T06:28:11.218Z,57.08
2023-05-23T06:30:38.105Z,67.57
2023-05-23T06:33:05.384Z,57.38
2023-05-23T06:35:32.203Z,58.55
2023-05-23T06:37:58.819Z,56.38
2023-05-23T06:40:25.616Z,56.63
2023-05-23T06:42:52.097Z,60.65
2023-05-23T06:45:20.140Z,59.08
2023-05-23T06:47:46.757Z,61.13
2023-05-23T06:50:13.430Z,66.22
2023-05-23T06:52:40.165Z,68.63
2023-05-23T06:55:07.664Z,71.03
2023-05-23T06:57:34.288Z,70.28
2023-05-23T07:00:00.904Z,65.53
2023-05-23T07:02:28.179Z,61.63
2023-05-23T07:04:54.826Z,66.00
2023-05-23T07:07:21.726Z,63.58
2023-05-23T07:09:48.845Z,61.75
2023-05-23T07:12:18.522Z,68.05
2023-05-23T07:14:45.044Z,69.40
2023-05-23T07:17:11.736Z,74.50
2023-05-23T07:19:38.571Z,79.80
2023-05-23T07:22:05.335Z,66.13
2023-05-23T07:24:31.931Z,76.50
2023-05-23T07:26:58.503Z,70.53
2023-05-23T07:29:25.383Z,63.35
2023-05-23T07:31:52.206Z,65.55
2023-05-23T07:34:20.205Z,68.47
2023-05-23T07:36:46.942Z,65.38
2023-05-23T07:39:13.844Z,60.03
2023-05-23T07:41:41.150Z,62.97
2023-05-23T07:44:07.894Z,76.03
2023-05-23T07:46:34.426Z,67.03
2023-05-23T07:49:04.386Z,78.07
2023-05-23T07:51:31.480Z,67.40
2023-05-23T07:53:58.109Z,70.68
2023-05-23T07:56:25.373Z,67.47
2023-05-23T07:58:52.693Z,63.92
2023-05-23T08:01:19.657Z,68.13
2023-05-23T08:03:49.883Z,63.13
2023-05-23T08:06:16.747Z,59.63
2023-05-23T08:08:43.713Z,59.97
2023-05-23T08:11:10.324Z,58.00
2023-05-23T08:13:36.904Z,55.67
2023-05-23T08:16:03.845Z,64.25
2023-05-23T08:18:31.863Z,56.67
2023-05-23T08:20:58.809Z,52.35
2023-05-23T08:23:25.288Z,65.47
2023-05-23T08:25:54.758Z,89.47
2023-05-23T08:28:21.273Z,50.45
2023-05-23T08:30:47.976Z,44.88
2023-05-23T08:33:14.633Z,53.28
2023-05-23T08:35:41.893Z,57.08
2023-05-23T08:38:11.835Z,41.47
2023-05-23T08:40:41.567Z,41.60
2023-05-23T08:43:10.629Z,47.78
2023-05-23T08:45:37.529Z,48.20
2023-05-23T08:48:08.214Z,45.33
2023-05-23T08:50:39.158Z,41.95
2023-05-23T08:53:06.655Z,43.10
2023-05-23T08:55:33.974Z,34.97
2023-05-23T08:58:01.996Z,38.15
2023-05-23T09:00:28.721Z,38.88
2023-05-23T09:02:55.972Z,42.72
2023-05-23T09:05:23.029Z,41.90
2023-05-23T09:07:50.505Z,42.47
2023-05-23T09:10:19.234Z,43.75
2023-05-23T09:12:46.150Z,39.72
2023-05-23T09:15:13.306Z,40.97
2023-05-23T09:17:40.258Z,39.83
2023-05-23T09:20:15.013Z,31.73
2023-05-23T09:22:46.893Z,35.05
2023-05-23T09:25:14.240Z,30.77
2023-05-23T09:27:42.151Z,39.78
2023-05-23T09:30:11.597Z,36.75
2023-05-23T09:32:38.874Z,36.97
2023-05-23T09:35:08.943Z,38.65
2023-05-23T09:37:45.962Z,33.15
2023-05-23T09:40:14.922Z,29.55
2023-05-23T09:42:43.782Z,32.63
2023-05-23T09:45:12.932Z,38.58
2023-05-23T09:47:41.337Z,29.83
2023-05-23T09:50:09.310Z,31.27
2023-05-23T09:52:39.104Z,27.98
2023-05-23T09:55:06.721Z,23.77
2023-05-23T09:57:40.158Z,28.30
2023-05-23T10:00:08.144Z,31.00
2023-05-23T10:02:37.763Z,26.70
2023-05-23T10:05:07.290Z,30.67
2023-05-23T10:07:35.477Z,26.27
2023-05-23T10:10:06.606Z,34.88
2023-05-23T10:12:36.100Z,26.65
2023-05-23T10:15:05.169Z,27.92
2023-05-23T10:17:40.767Z,31.85
2023-05-23T10:20:11.631Z,26.17
2023-05-23T10:22:39.218Z,26.08
2023-05-23T10:25:07.177Z,30.95
2023-05-23T10:27:34.360Z,28.73
2023-05-23T10:30:01.405Z,27.80
2023-05-23T10:32:37.307Z,28.80
2023-05-23T10:35:25.357Z,26.58
2023-05-23T10:38:17.296Z,22.17
2023-05-23T10:41:25.730Z,27.92
2023-05-23T10:44:12.911Z,25.52
2023-05-23T10:47:00.160Z,28.25
2023-05-23T10:49:43.382Z,27.15
2023-05-23T10:52:13.191Z,25.13
2023-05-23T10:54:49.562Z,34.47
2023-05-23T10:57:18.973Z,26.45
2023-05-23T10:59:46.969Z,22.45
2023-05-23T11:02:15.870Z,21.67
2023-05-23T11:04:43.537Z,23.08
2023-05-23T11:07:32.806Z,24.30
2023-05-23T11:10:11.191Z,22.98
2023-05-23T11:12:40.857Z,25.60
2023-05-23T11:15:19.896Z,25.63
2023-05-23T11:17:52.808Z,17.65
2023-05-23T11:20:20.573Z,24.67
2023-05-23T11:22:54.941Z,25.33
2023-05-23T11:25:21.624Z,26.80
2023-05-23T11:27:50.219Z,20.40
2023-05-23T11:30:18.078Z,23.63
2023-05-23T11:32:52.269Z,25.77
2023-05-23T11:35:19.338Z,18.60
2023-05-23T11:37:46.094Z,20.20
2023-05-23T11:40:27.302Z,19.83
2023-05-23T11:42:54.815Z,15.65
2023-05-23T11:45:22.986Z,18.58
2023-05-23T11:47:49.591Z,20.67
2023-05-23T11:50:17.138Z,16.38
2023-05-23T11:52:46.860Z,17.90
2023-05-23T11:55:14.460Z,21.23
2023-05-23T11:57:41.428Z,18.17
2023-05-23T12:00:09.206Z,14.63
2023-05-23T12:02:44.223Z,19.33
2023-05-23T12:05:12.900Z,13.50
2023-05-23T12:07:42.875Z,12.88
2023-05-23T12:10:11.095Z,13.48
2023-05-23T12:12:38.040Z,35.03
2023-05-23T12:15:06.437Z,12.00
2023-05-23T12:17:35.946Z,14.73
2023-05-23T12:20:03.392Z,13.00
2023-05-23T12:22:31.359Z,11.25
2023-05-23T12:24:58.359Z,10.70
2023-05-23T12:27:29.240Z,10.27
2023-05-23T12:30:13.487Z,14.35
2023-05-23T12:32:44.970Z,14.30
2023-05-23T12:35:13.914Z,11.05
2023-05-23T12:37:42.430Z,16.02
2023-05-23T12:40:17.563Z,19.00
2023-05-23T12:42:51.971Z,18.00
2023-05-23T12:45:23.042Z,93.60
2023-05-23T12:47:52.990Z,39.85
2023-05-23T12:50:20.988Z,20.73
2023-05-23T12:52:47.775Z,17.27
2023-05-23T12:55:14.492Z,20.45
2023-05-23T12:57:41.675Z,13.70
2023-05-23T13:00:09.116Z,18.88
2023-05-23T13:02:35.931Z,12.27
2023-05-23T13:05:02.949Z,13.60
2023-05-23T13:07:29.938Z,14.63
2023-05-23T13:09:57.069Z,12.02
2023-05-23T13:12:37.028Z,10.38
2023-05-23T13:15:05.200Z,10.57
2023-05-23T13:17:31.921Z,13.90
2023-05-23T13:19:58.513Z,11.50
2023-05-23T13:22:25.096Z,10.25
2023-05-23T13:24:51.801Z,10.45
2023-05-23T13:27:19.837Z,10.48
2023-05-23T13:29:46.465Z,13.55
2023-05-23T13:32:13.166Z,9.07
2023-05-23T13:34:39.780Z,9.27
2023-05-23T13:37:08.988Z,14.32
2023-05-23T13:39:35.686Z,10.00
2023-05-23T13:42:02.701Z,9.60
2023-05-23T13:44:29.633Z,10.88
2023-05-23T13:46:58.592Z,12.65
2023-05-23T13:49:25.690Z,12.05
2023-05-23T13:51:52.467Z,8.85
2023-05-23T13:54:19.342Z,9.88
2023-05-23T13:56:45.840Z,8.65
2023-05-23T13:59:12.681Z,8.70
2023-05-23T14:01:39.305Z,7.55
2023-05-23T14:04:07.214Z,8.52
2023-05-23T14:06:34.044Z,13.10
2023-05-23T14:09:00.914Z,9.75
2023-05-23T14:11:27.759Z,7.93
2023-05-23T14:13:54.837Z,6.90
2023-05-23T14:16:22.000Z,8.77
2023-05-23T14:18:49.222Z,7.22
2023-05-23T14:21:17.594Z,7.03
2023-05-23T14:23:44.659Z,8.48
2023-05-23T14:26:13.086Z,7.70
2023-05-23T14:28:40.515Z,9.07
2023-05-23T14:31:07.723Z,7.32
2023-05-23T14:33:35.313Z,6.45
2023-05-23T14:36:02.604Z,8.15
2023-05-23T14:38:29.141Z,8.60
2023-05-23T14:40:56.740Z,6.18
2023-05-23T14:43:23.875Z,7.63
2023-05-23T14:45:50.808Z,7.30
2023-05-23T14:48:18.178Z,7.10
2023-05-23T14:50:45.389Z,7.75
2023-05-23T14:53:12.021Z,5.55
2023-05-23T14:55:38.866Z,11.43
2023-05-23T14:58:05.522Z,6.53
2023-05-23T15:00:32.233Z,6.03
2023-05-23T15:02:58.898Z,6.18
2023-05-23T15:05:25.891Z,6.00
2023-05-23T15:07:53.180Z,5.90
2023-05-23T15:10:22.795Z,6.20
2023-05-23T15:12:49.801Z,8.67
2023-05-23T15:15:16.600Z,5.35
2023-05-23T15:17:43.623Z,5.65
2023-05-23T15:20:11.007Z,5.38
2023-05-23T15:22:39.825Z,6.78
2023-05-23T15:25:08.328Z,4.78
2023-05-23T15:27:37.632Z,7.95
2023-05-23T15:30:04.979Z,6.03
2023-05-23T15:32:31.565Z,6.20
2023-05-23T15:34:58.211Z,11.90
2023-05-23T15:37:25.142Z,4.97
2023-05-23T15:39:52.075Z,7.63
2023-05-23T15:42:18.610Z,4.78
2023-05-23T15:44:45.697Z,4.70
2023-05-23T15:47:12.303Z,5.35
2023-05-23T15:49:39.053Z,5.10
2023-05-23T15:52:05.973Z,5.28
2023-05-23T15:54:32.697Z,6.57
2023-05-23T15:56:59.304Z,6.25
2023-05-23T15:59:26.284Z,5.13
2023-05-23T16:01:53.335Z,6.32
2023-05-23T16:04:19.938Z,4.35
2023-05-23T16:06:46.712Z,6.85
2023-05-23T16:09:13.956Z,6.80
2023-05-23T16:11:41.403Z,5.15
2023-05-23T16:14:07.950Z,5.45
2023-05-23T16:16:37.492Z,5.65
2023-05-23T16:19:04.252Z,5.63
2023-05-23T16:21:31.198Z,7.80
2023-05-23T16:23:57.681Z,6.72
2023-05-23T16:26:24.583Z,7.22
2023-05-23T16:28:51.602Z,5.05
2023-05-23T16:31:18.320Z,5.22
2023-05-23T16:33:45.231Z,5.75
2023-05-23T16:36:12.539Z,5.40
2023-05-23T16:38:39.451Z,5.45
2023-05-23T16:41:06.381Z,5.80
2023-05-23T16:43:33.989Z,5.82
2023-05-23T16:46:01.212Z,6.03
2023-05-23T16:48:27.764Z,7.57
2023-05-23T16:50:54.888Z,6.10
2023-05-23T16:53:22.434Z,6.05
2023-05-23T16:55:49.018Z,6.72
2023-05-23T16:58:18.015Z,5.65
2023-05-23T17:00:45.936Z,8.95
2023-05-23T17:03:12.748Z,6.03
2023-05-23T17:05:39.834Z,5.35
2023-05-23T17:08:06.571Z,6.25
2023-05-23T17:10:34.355Z,7.85
2023-05-23T17:13:01.063Z,8.60
2023-05-23T17:15:27.595Z,9.82
2023-05-23T17:17:54.178Z,7.90
2023-05-23T17:20:20.774Z,11.25
2023-05-23T17:22:47.622Z,9.23
2023-05-23T17:25:14.342Z,11.88
2023-05-23T17:27:41.157Z,8.38
2023-05-23T17:30:08.552Z,9.77
2023-05-23T17:32:35.882Z,9.27
2023-05-23T17:35:02.693Z,12.13
2023-05-23T17:37:29.715Z,7.13
2023-05-23T17:39:57.899Z,8.10
2023-05-23T17:42:27.312Z,8.68
2023-05-23T17:44:54.300Z,8.63
2023-05-23T17:47:23.440Z,7.05
2023-05-23T17:49:50.232Z,8.65
2023-05-23T17:52:17.292Z,6.40
2023-05-23T17:54:44.261Z,10.38
2023-05-23T17:57:11.186Z,9.13
2023-05-23T17:59:38.019Z,8.93
2023-05-23T18:02:05.396Z,11.75
2023-05-23T18:04:32.179Z,7.40
2023-05-23T18:06:59.881Z,8.90
2023-05-23T18:09:27.215Z,8.02
2023-05-23T18:11:57.108Z,7.45
2023-05-23T18:14:24.117Z,8.52
2023-05-23T18:16:51.148Z,7.07
2023-05-23T18:19:20.787Z,7.72
2023-05-23T18:21:47.629Z,6.77
2023-05-23T18:24:14.289Z,7.28
2023-05-23T18:26:41.797Z,10.05
2023-05-23T18:29:09.671Z,7.85
2023-05-23T18:31:36.441Z,6.00
2023-05-23T18:34:04.601Z,5.22
2023-05-23T18:36:31.621Z,5.50
2023-05-23T18:38:58.704Z,5.07
2023-05-23T18:41:25.458Z,5.43
2023-05-23T18:43:52.114Z,4.82
2023-05-23T18:46:19.079Z,4.18
2023-05-23T18:48:45.701Z,3.95
2023-05-23T18:51:12.708Z,5.00
2023-05-23T18:53:42.227Z,5.63
2023-05-23T18:56:09.492Z,3.40
2023-05-23T18:58:36.124Z,5.30
2023-05-23T19:01:04.356Z,4.38
2023-05-23T19:03:31.433Z,3.65
2023-05-23T19:05:58.133Z,3.53
2023-05-23T19:08:24.983Z,5.28
2023-05-23T19:10:51.811Z,5.45
2023-05-23T19:13:20.661Z,3.38
2023-05-23T19:15:48.249Z,3.38
2023-05-23T19:18:14.975Z,3.35
2023-05-23T19:20:41.951Z,4.07
2023-05-23T19:23:08.666Z,5.63
2023-05-23T19:25:35.247Z,3.42
2023-05-23T19:28:02.265Z,2.90
2023-05-23T19:30:28.926Z,2.95
2023-05-23T19:32:55.857Z,4.25
2023-05-23T19:35:22.713Z,3.10
2023-05-23T19:37:49.693Z,3.33
2023-05-23T19:40:16.511Z,3.13
2023-05-23T19:42:43.440Z,4.68
2023-05-23T19:45:10.480Z,2.38
2023-05-23T19:47:37.213Z,4.90
2023-05-23T19:50:04.424Z,4.25
2023-05-23T19:52:32.159Z,3.67
2023-05-23T19:55:01.246Z,3.60
2023-05-23T19:57:30.167Z,3.30
2023-05-23T19:59:56.607Z,2.63
2023-05-23T20:02:23.235Z,3.45
2023-05-23T20:04:49.854Z,3.33
2023-05-23T20:07:16.689Z,2.60
2023-05-23T20:09:43.486Z,2.63
2023-05-23T20:12:12.922Z,3.03
2023-05-23T20:14:39.720Z,3.00
2023-05-23T20:17:06.489Z,2.33
2023-05-23T20:19:33.051Z,5.03
2023-05-23T20:22:00.052Z,3.67
2023-05-23T20:24:26.765Z,3.88
2023-05-23T20:26:53.675Z,3.40
2023-05-23T20:29:20.406Z,2.33
2023-05-23T20:31:46.999Z,3.63
2023-05-23T20:34:13.695Z,2.25
2023-05-23T20:36:40.704Z,3.30
2023-05-23T20:39:09.903Z,3.00
2023-05-23T20:41:36.424Z,2.53
2023-05-23T20:44:03.321Z,2.38
2023-05-23T20:46:29.966Z,2.50
2023-05-23T20:48:56.552Z,3.10
2023-05-23T20:51:23.192Z,1.80
2023-05-23T20:53:52.018Z,3.53
2023-05-23T20:56:18.579Z,4.43
2023-05-23T20:58:45.082Z,3.55
2023-05-23T21:01:13.021Z,3.03
2023-05-23T21:03:41.145Z,3.15
2023-05-23T21:06:08.272Z,2.42
2023-05-23T21:08:35.129Z,3.38
2023-05-23T21:11:01.975Z,2.95
2023-05-23T21:13:28.530Z,3.63
2023-05-23T21:15:55.133Z,3.05
2023-05-23T21:18:21.682Z,4.00
2023-05-23T21:20:48.276Z,3.63
2023-05-23T21:23:15.054Z,2.80
2023-05-23T21:25:41.653Z,3.22
2023-05-23T21:28:08.170Z,3.72
2023-05-23T21:30:35.076Z,3.78
2023-05-23T21:33:03.568Z,2.95
2023-05-23T21:35:30.441Z,5.10
2023-05-23T21:37:57.316Z,3.33
2023-05-23T21:40:24.153Z,3.33
2023-05-23T21:42:50.939Z,3.50
2023-05-23T21:45:17.578Z,3.70
2023-05-23T21:47:45.637Z,3.65
2023-05-23T21:50:12.275Z,4.95
2023-05-23T21:52:39.191Z,4.68
2023-05-23T21:55:06.539Z,4.43
2023-05-23T21:57:33.032Z,3.25
2023-05-23T21:59:59.713Z,3.78
2023-05-23T22:02:26.595Z,4.20
2023-05-23T22:04:53.531Z,2.95
2023-05-23T22:07:20.156Z,5.13
2023-05-23T22:09:47.046Z,3.67
2023-05-23T22:12:13.580Z,4.57
2023-05-23T22:14:40.136Z,5.00
2023-05-23T22:17:06.769Z,3.80
2023-05-23T22:19:33.347Z,3.78
2023-05-23T22:22:00.179Z,4.18
2023-05-23T22:24:26.835Z,4.43
2023-05-23T22:26:53.343Z,4.88
2023-05-23T22:29:19.861Z,5.60
2023-05-23T22:31:48.058Z,5.22
2023-05-23T22:34:14.778Z,3.90
2023-05-23T22:36:41.400Z,4.50
2023-05-23T22:39:08.165Z,5.05
2023-05-23T22:41:34.944Z,4.00
2023-05-23T22:44:02.029Z,5.47
2023-05-23T22:46:28.618Z,5.03
2023-05-23T22:48:55.521Z,6.50
2023-05-23T22:51:22.649Z,7.93
2023-05-23T22:53:49.208Z,6.10
2023-05-23T22:56:16.048Z,4.90
2023-05-23T22:58:42.877Z,5.32
2023-05-23T23:01:09.675Z,5.53
2023-05-23T23:03:36.324Z,5.90
2023-05-23T23:06:03.189Z,6.18
2023-05-23T23:08:29.724Z,5.50
2023-05-23T23:10:56.227Z,7.40
2023-05-23T23:13:23.000Z,5.97
2023-05-23T23:15:49.605Z,6.43
2023-05-23T23:18:16.149Z,7.60
2023-05-23T23:20:42.773Z,6.22
2023-05-23T23:23:10.919Z,6.22
2023-05-23T23:25:37.484Z,8.95
2023-05-23T23:28:04.184Z,6.10
2023-05-23T23:30:30.893Z,4.63
2023-05-23T23:32:57.864Z,5.45
2023-05-23T23:35:24.723Z,6.57
2023-05-23T23:37:51.856Z,4.05
2023-05-23T23:40:18.667Z,6.50
2023-05-23T23:42:45.228Z,4.75
2023-05-23T23:45:11.857Z,4.22
2023-05-23T23:47:38.434Z,5.43
2023-05-23T23:50:05.719Z,5.25
2023-05-23T23:52:32.260Z,4.93
2023-05-23T23:54:58.670Z,8.90
2023-05-23T23:57:25.208Z,5.22
2023-05-23T23:59:51.788Z,4.95
